Time;durP1;ratioP1;P1;durP2;ratioP2;P2;SDS_P1;SDS_P2;PMS_P1;PMS_P2;Temp;Humidity;BMP_temperature;BMP_pressure;BME280_temperature;BME280_humidity;BME280_pressure;Samples;Min_cycle;Max_cycle;Signal;HPM_P1;HPM_P2
2021/08/23 00:00:11;;;;;;;4.55;1.80;;;;;;;14.65;78.67;101438.22;5063107;28;20431;-76
2021/08/23 00:02:37;;;;;;;9.07;2.08;;;;;;;14.62;78.88;101442.44;5080431;28;20076;-76
2021/08/23 00:05:03;;;;;;;3.17;1.55;;;;;;;14.59;78.66;101440.25;5081921;28;20028;-76
2021/08/23 00:07:28;;;;;;;4.47;2.03;;;;;;;14.58;78.76;101438.59;5085043;28;20035;-76
2021/08/23 00:09:54;;;;;;;5.78;1.60;;;;;;;14.58;78.91;101437.75;5065200;28;20419;-76
2021/08/23 00:12:21;;;;;;;4.82;1.90;;;;;;;14.53;78.76;101435.84;5048436;28;20049;-75
2021/08/23 00:14:46;;;;;;;3.80;1.80;;;;;;;14.47;78.61;101443.44;5094526;28;20052;-75
2021/08/23 00:17:12;;;;;;;4.45;1.90;;;;;;;14.48;79.13;101438.69;5098523;28;20039;-75
2021/08/23 00:19:37;;;;;;;4.68;1.55;;;;;;;14.44;78.83;101438.44;5098951;28;20024;-76
2021/08/23 00:24:59;;;;;;;5.00;1.70;;;;;;;14.40;78.69;101450.50;5092654;28;20074;-75
2021/08/23 00:27:25;;;;;;;5.50;1.88;;;;;;;14.36;78.75;101441.06;5096464;28;20024;-75
2021/08/23 00:29:51;;;;;;;3.33;1.80;;;;;;;14.35;78.90;101450.56;5066173;28;20093;-75
2021/08/23 00:32:16;;;;;;;4.63;1.98;;;;;;;14.29;79.00;101439.47;5102436;28;20028;-75
2021/08/23 00:34:42;;;;;;;3.70;1.52;;;;;;;14.27;79.12;101440.88;5097029;28;20471;-75
2021/08/23 00:37:08;;;;;;;6.50;1.60;;;;;;;14.22;78.83;101450.16;5079865;28;20051;-75
2021/08/23 00:39:34;;;;;;;5.18;1.60;;;;;;;14.21;79.12;101450.47;5086164;28;20556;-75
2021/08/23 00:42:01;;;;;;;3.80;1.67;;;;;;;14.14;78.97;101442.41;5083535;28;20034;-76
2021/08/23 00:44:26;;;;;;;5.90;1.80;;;;;;;14.13;78.92;101453.91;5060402;28;20028;-75
2021/08/23 00:46:52;;;;;;;4.28;1.63;;;;;;;14.11;79.46;101439.38;5086190;28;20020;-75
2021/08/23 00:49:17;;;;;;;3.33;1.40;;;;;;;14.12;78.78;101443.84;5079748;28;20399;-76
2021/08/23 00:51:43;;;;;;;5.40;1.95;;;;;;;14.05;79.13;101441.41;5045202;28;20052;-76
2021/08/23 00:54:08;;;;;;;4.82;2.13;;;;;;;14.01;79.32;101434.72;5076540;28;20036;-75
2021/08/23 00:56:34;;;;;;;7.68;2.20;;;;;;;14.01;79.94;101446.75;5065012;28;20377;-74
2021/08/23 00:59:00;;;;;;;7.32;2.72;;;;;;;13.99;80.42;101434.19;5066906;28;20028;-75
2021/08/23 01:01:30;;;;;;;3.55;1.60;;;;;;;13.98;80.18;101430.56;5058650;28;20024;-75
2021/08/23 01:04:05;;;;;;;5.90;2.20;;;;;;;13.93;80.92;101427.84;5070101;28;20073;-75
2021/08/23 01:06:31;;;;;;;6.22;2.15;;;;;;;13.92;80.55;101425.31;5097321;28;20024;-75
2021/08/23 01:08:58;;;;;;;6.10;2.10;;;;;;;13.90;81.02;101417.25;5081625;28;20480;-75
2021/08/23 01:11:23;;;;;;;5.05;2.17;;;;;;;13.85;81.29;101420.94;5063281;28;20051;-75
2021/08/23 01:13:49;;;;;;;9.13;2.90;;;;;;;13.87;81.74;101417.81;5094212;28;20384;-75
2021/08/23 01:16:15;;;;;;;8.30;2.42;;;;;;;13.89;81.90;101414.75;5077926;28;20098;-75
2021/08/23 01:18:42;;;;;;;5.20;2.60;;;;;;;13.88;82.33;101416.72;5081975;28;20114;-75
2021/08/23 01:21:08;;;;;;;6.72;2.22;;;;;;;13.87;82.61;101417.81;5062798;28;20413;-75
2021/08/23 01:23:34;;;;;;;6.07;2.45;;;;;;;13.88;82.83;101416.72;5091102;28;20079;-75
2021/08/23 01:26:00;;;;;;;6.45;2.33;;;;;;;13.87;82.86;101412.25;5071565;28;20032;-75
2021/08/23 01:28:43;;;;;;;6.95;2.42;;;;;;;13.90;82.75;101408.03;5086528;28;20024;-75
2021/08/23 01:31:15;;;;;;;5.30;2.03;;;;;;;13.90;82.81;101399.66;5053040;28;20028;-75
2021/08/23 01:33:44;;;;;;;5.00;2.30;;;;;;;13.91;82.97;101410.53;5096796;28;20028;-75
2021/08/23 01:36:10;;;;;;;7.82;2.78;;;;;;;13.90;82.44;101414.47;5079500;28;20032;-75
2021/08/23 01:38:36;;;;;;;7.15;2.45;;;;;;;13.91;82.51;101413.31;5078445;28;20040;-75
2021/08/23 01:41:03;;;;;;;5.03;2.28;;;;;;;13.91;82.64;101412.50;5095720;28;20032;-75
2021/08/23 01:43:29;;;;;;;5.10;2.25;;;;;;;13.86;82.36;101405.00;5086005;28;20036;-75
2021/08/23 01:45:54;;;;;;;5.57;2.35;;;;;;;13.86;82.49;101405.81;5077628;28;20031;-75
2021/08/23 01:48:20;;;;;;;6.45;2.45;;;;;;;13.85;82.45;101411.72;5064336;28;20561;-75
2021/08/23 01:50:46;;;;;;;4.05;2.00;;;;;;;13.82;82.04;101403.94;5069025;28;20042;-75
2021/08/23 01:53:11;;;;;;;4.55;1.48;;;;;;;13.84;82.03;101401.66;5043107;28;20049;-75
2021/08/23 01:55:37;;;;;;;3.05;1.73;;;;;;;13.82;81.66;101401.16;5093291;28;20027;-75
2021/08/23 01:58:04;;;;;;;4.30;1.77;;;;;;;13.79;81.28;101404.50;5096510;28;20031;-75
2021/08/23 02:00:29;;;;;;;3.58;1.90;;;;;;;13.77;81.51;101403.97;5078987;28;20028;-75
2021/08/23 02:02:55;;;;;;;4.57;1.73;;;;;;;13.74;81.68;101402.59;5062839;28;20049;-75
2021/08/23 02:05:20;;;;;;;5.53;2.00;;;;;;;13.70;82.14;101395.09;5061652;28;20029;-75
2021/08/23 02:07:46;;;;;;;2.22;1.88;;;;;;;13.70;81.48;101393.13;5081270;28;20028;-75
2021/08/23 02:10:11;;;;;;;3.50;1.60;;;;;;;13.66;81.58;101396.81;5066283;28;20035;-75
2021/08/23 02:12:37;;;;;;;4.00;1.70;;;;;;;13.62;81.29;101405.78;5064874;28;20020;-75
2021/08/23 02:15:03;;;;;;;2.80;1.70;;;;;;;13.60;81.55;101402.44;5035409;28;20433;-75
2021/08/23 02:17:29;;;;;;;2.63;1.70;;;;;;;13.60;81.85;101402.44;5077740;28;20404;-75
2021/08/23 02:19:54;;;;;;;4.65;1.80;;;;;;;13.60;81.64;101402.44;5081263;28;20472;-75
2021/08/23 02:22:20;;;;;;;4.38;1.75;;;;;;;13.58;82.18;101404.69;5094299;28;20441;-75
2021/08/23 02:24:45;;;;;;;1.77;1.40;;;;;;;13.58;81.73;101395.50;5063100;28;21767;-75
2021/08/23 02:27:11;;;;;;;2.53;1.52;;;;;;;13.55;81.26;101399.69;5065440;28;20643;-75
2021/08/23 02:29:36;;;;;;;2.45;1.58;;;;;;;13.55;81.48;101394.13;5080499;28;20032;-75
2021/08/23 02:32:02;;;;;;;1.63;1.23;;;;;;;13.54;81.20;101389.69;5078943;28;20028;-75
2021/08/23 02:34:28;;;;;;;1.70;1.10;;;;;;;13.54;81.31;101402.78;5077432;28;20039;-75
2021/08/23 02:36:53;;;;;;;1.98;1.50;;;;;;;13.52;81.47;101396.66;5060859;28;20074;-75
2021/08/23 02:39:19;;;;;;;2.42;1.60;;;;;;;13.48;81.66;101387.19;5067582;28;20031;-75
2021/08/23 02:41:44;;;;;;;2.67;1.40;;;;;;;13.46;81.43;101387.50;5087344;28;20383;-75
2021/08/23 02:44:10;;;;;;;2.03;1.40;;;;;;;13.46;81.53;101378.31;5080742;28;20027;-75
2021/08/23 02:46:35;;;;;;;2.70;1.35;;;;;;;13.44;81.32;101386.13;5087768;28;20020;-75
2021/08/23 02:49:01;;;;;;;3.65;1.35;;;;;;;13.41;81.31;101393.13;5063387;28;20114;-75
2021/08/23 02:51:26;;;;;;;2.50;1.48;;;;;;;13.40;81.18;101385.91;5092989;28;20048;-75
2021/08/23 02:53:52;;;;;;;2.17;1.30;;;;;;;13.37;81.34;101389.25;5083686;28;20026;-75
2021/08/23 02:56:17;;;;;;;3.50;1.30;;;;;;;13.36;81.12;101390.38;5060352;28;20162;-75
2021/08/23 02:58:43;;;;;;;2.20;1.40;;;;;;;13.32;80.97;101392.94;5065295;28;20040;-75
2021/08/23 03:01:08;;;;;;;2.60;1.30;;;;;;;13.33;81.25;101388.16;5104708;28;20399;-75
2021/08/23 03:03:35;;;;;;;3.03;1.48;;;;;;;13.27;81.22;101389.34;5094731;28;20032;-75
2021/08/23 03:06:01;;;;;;;4.63;1.42;;;;;;;13.24;81.24;101390.72;5079878;28;20042;-75
2021/08/23 03:08:26;;;;;;;2.63;1.85;;;;;;;13.20;81.40;101392.41;5057747;28;20020;-75
2021/08/23 03:10:54;;;;;;;1.60;1.38;;;;;;;13.19;81.23;101386.00;5087682;28;20368;-75
2021/08/23 03:13:21;;;;;;;2.72;1.67;;;;;;;13.17;81.25;101387.41;5097584;28;20549;-75
2021/08/23 03:15:46;;;;;;;2.40;1.58;;;;;;;13.14;81.32;101388.81;5100033;28;20036;-75
2021/08/23 03:18:12;;;;;;;2.08;1.52;;;;;;;13.10;81.44;101387.75;5101034;28;20028;-75
2021/08/23 03:20:38;;;;;;;1.90;1.40;;;;;;;13.07;81.10;101382.75;5104098;28;20699;-75
2021/08/23 03:23:03;;;;;;;3.17;1.52;;;;;;;13.07;81.21;101388.34;5094680;28;20035;-75
2021/08/23 03:25:29;;;;;;;2.30;1.50;;;;;;;13.06;81.46;101394.19;5076638;28;20047;-75
2021/08/23 03:27:54;;;;;;;2.95;1.73;;;;;;;13.03;81.50;101390.03;5098086;28;20392;-75
2021/08/23 03:30:20;;;;;;;4.75;1.90;;;;;;;13.03;81.16;101383.63;5050255;28;20024;-75
2021/08/23 03:32:45;;;;;;;2.38;1.30;;;;;;;13.01;81.30;101394.22;5075988;28;20108;-75
2021/08/23 03:35:11;;;;;;;2.72;1.60;;;;;;;12.99;81.47;101391.75;5059601;28;20032;-75
2021/08/23 03:37:36;;;;;;;3.53;1.55;;;;;;;12.97;81.63;101397.59;5076667;28;20056;-75
2021/08/23 03:40:02;;;;;;;2.50;1.30;;;;;;;12.97;81.41;101393.97;5092047;28;20473;-75
2021/08/23 03:42:28;;;;;;;3.08;1.30;;;;;;;12.95;81.40;101390.63;5065846;28;20573;-75
2021/08/23 03:44:53;;;;;;;3.58;1.55;;;;;;;12.92;81.70;101386.47;5078836;28;20035;-75
2021/08/23 03:47:19;;;;;;;3.05;1.60;;;;;;;12.91;81.46;101392.34;5065643;28;20036;-75
2021/08/23 03:49:45;;;;;;;3.67;1.90;;;;;;;12.89;81.59;101394.56;5037608;28;20024;-75
2021/08/23 03:52:10;;;;;;;2.47;1.48;;;;;;;12.88;81.55;101398.50;5059242;28;20044;-75
2021/08/23 03:54:36;;;;;;;2.22;1.60;;;;;;;12.87;81.93;101396.81;5091910;28;20035;-75
2021/08/23 03:57:01;;;;;;;4.07;1.70;;;;;;;12.87;81.57;101391.25;5051891;28;20024;-75
2021/08/23 03:59:27;;;;;;;2.65;1.50;;;;;;;12.85;81.92;101399.91;5071440;28;20027;-75
2021/08/23 04:01:52;;;;;;;2.47;1.40;;;;;;;12.86;82.51;101398.78;5053276;28;20024;-75
2021/08/23 04:04:18;;;;;;;3.92;1.27;;;;;;;12.84;82.06;101398.25;5093250;28;20034;-75
2021/08/23 04:06:45;;;;;;;4.60;1.38;;;;;;;12.92;82.02;101396.78;5083733;28;20054;-75
2021/08/23 04:09:13;;;;;;;3.00;1.50;;;;;;;12.88;82.43;101395.72;5094948;28;20394;-75
2021/08/23 04:11:39;;;;;;;2.95;1.73;;;;;;;12.88;82.50;101395.72;5067425;28;20034;-75
2021/08/23 04:14:04;;;;;;;3.80;1.45;;;;;;;12.91;82.79;101393.16;5083221;28;20019;-75
2021/08/23 04:16:30;;;;;;;2.38;1.52;;;;;;;12.89;83.20;101398.19;5077542;28;20372;-75
2021/08/23 04:18:55;;;;;;;1.80;1.50;;;;;;;12.92;83.46;101396.78;5075214;28;20027;-75
2021/08/23 04:21:21;;;;;;;6.03;1.70;;;;;;;12.97;83.04;101391.19;5085208;28;20031;-74
2021/08/23 04:23:46;;;;;;;5.50;1.98;;;;;;;12.97;83.53;101388.41;5069827;28;20040;-75
2021/08/23 04:26:12;;;;;;;3.30;1.70;;;;;;;12.97;83.94;101405.94;5046028;28;20063;-75
2021/08/23 04:28:38;;;;;;;3.28;1.70;;;;;;;13.01;83.54;101409.03;5061648;28;20077;-74
2021/08/23 04:31:03;;;;;;;2.10;1.50;;;;;;;13.06;83.00;101408.13;5087741;28;20020;-75
2021/08/23 04:33:29;;;;;;;2.80;1.65;;;;;;;13.05;84.04;101412.88;5087339;28;20029;-75
2021/08/23 04:35:55;;;;;;;2.38;1.40;;;;;;;13.12;83.08;101405.03;5070600;28;20032;-75
2021/08/23 04:38:20;;;;;;;2.88;1.58;;;;;;;13.11;83.75;101411.72;5064482;28;20035;-75
2021/08/23 04:40:46;;;;;;;2.42;1.60;;;;;;;13.16;83.49;101413.66;5062585;28;20027;-75
2021/08/23 04:43:11;;;;;;;2.33;1.88;;;;;;;13.19;83.59;101399.13;5069481;28;20431;-75
2021/08/23 04:45:37;;;;;;;1.60;1.30;;;;;;;13.18;83.73;101408.63;5100360;28;20031;-75
2021/08/23 04:48:02;;;;;;;1.55;1.40;;;;;;;13.19;84.13;101405.53;5081128;28;20029;-75
2021/08/23 04:50:28;;;;;;;3.58;1.52;;;;;;;13.24;84.09;101409.41;5079580;28;20038;-75
2021/08/23 04:52:53;;;;;;;5.47;1.40;;;;;;;13.25;84.12;101408.28;5079120;28;20048;-75
2021/08/23 04:55:19;;;;;;;1.67;1.30;;;;;;;13.25;83.41;101411.91;5061609;28;20040;-75
2021/08/23 04:57:44;;;;;;;2.08;1.20;;;;;;;13.27;83.50;101406.09;5049475;28;20028;-75
2021/08/23 05:00:10;;;;;;;1.83;1.10;;;;;;;13.26;83.45;101410.84;5066752;28;20032;-75
2021/08/23 05:02:36;;;;;;;2.33;1.27;;;;;;;13.27;84.19;101412.50;5077862;28;20074;-75
2021/08/23 05:05:01;;;;;;;3.40;1.02;;;;;;;13.29;83.24;101423.34;5086372;28;20035;-75
2021/08/23 05:07:27;;;;;;;1.42;1.15;;;;;;;13.29;83.73;101415.81;5078833;28;20035;-75
2021/08/23 05:09:53;;;;;;;2.60;1.05;;;;;;;13.33;83.74;101424.44;5081331;28;20407;-75
2021/08/23 05:12:18;;;;;;;1.80;1.15;;;;;;;13.33;84.32;101425.28;5062312;28;20063;-75
2021/08/23 05:14:43;;;;;;;1.50;1.25;;;;;;;13.33;83.82;101424.44;5062528;28;20035;-75
2021/08/23 05:17:09;;;;;;;1.63;1.00;;;;;;;13.34;84.33;101426.91;5067069;28;20032;-75
2021/08/23 05:19:35;;;;;;;1.10;0.90;;;;;;;13.38;84.39;101427.19;5097348;28;20032;-75
2021/08/23 05:22:00;;;;;;;1.85;0.90;;;;;;;13.36;83.88;101429.44;5062111;28;20104;-75
2021/08/23 05:24:26;;;;;;;1.65;0.88;;;;;;;13.38;84.24;101430.00;5078058;28;20036;-75
2021/08/23 05:26:51;;;;;;;0.80;0.80;;;;;;;13.40;84.22;101424.97;5090504;28;20085;-75
2021/08/23 05:29:17;;;;;;;1.00;0.88;;;;;;;13.42;83.91;101428.25;5098980;28;20495;-75
2021/08/23 05:31:42;;;;;;;1.60;1.20;;;;;;;13.43;84.56;101429.94;5101060;28;20033;-75
2021/08/23 05:34:08;;;;;;;1.42;0.98;;;;;;;13.44;83.85;101434.41;5075612;28;20032;-76
2021/08/23 05:36:33;;;;;;;0.60;0.60;;;;;;;13.43;83.88;101432.75;5063133;28;20032;-76
2021/08/23 05:38:59;;;;;;;1.02;0.77;;;;;;;13.47;84.14;101425.44;5084321;28;20035;-75
2021/08/23 05:41:24;;;;;;;0.90;0.70;;;;;;;13.55;83.41;101435.97;5086508;28;20028;-75
2021/08/23 05:43:50;;;;;;;1.30;0.60;;;;;;;13.61;83.13;101437.59;5084426;28;20033;-74
2021/08/23 05:46:22;;;;;;;0.85;0.70;;;;;;;13.71;83.02;101435.88;5077948;28;20472;-75
2021/08/23 05:48:47;;;;;;;0.93;0.83;;;;;;;13.70;83.11;101442.56;5070990;28;20028;-75
2021/08/23 05:51:14;;;;;;;1.25;0.68;;;;;;;13.72;83.23;101443.09;5083622;28;20039;-75
2021/08/23 05:53:43;;;;;;;1.02;0.93;;;;;;;13.72;83.39;101443.09;5075514;28;20032;-75
2021/08/23 05:56:09;;;;;;;1.25;0.80;;;;;;;13.73;83.39;101450.34;5048103;28;20027;-75
2021/08/23 05:58:35;;;;;;;1.10;0.77;;;;;;;13.75;83.55;101442.50;5056182;28;20028;-75
2021/08/23 06:01:00;;;;;;;0.98;0.77;;;;;;;13.77;83.88;101445.84;5079684;28;20047;-75
2021/08/23 06:03:26;;;;;;;0.68;0.60;;;;;;;13.78;83.79;101448.34;5083438;28;20677;-75
2021/08/23 06:05:51;;;;;;;0.98;0.80;;;;;;;13.79;83.66;101447.22;5066229;28;20082;-75
2021/08/23 06:08:17;;;;;;;0.70;0.70;;;;;;;13.82;84.04;101446.66;5095810;28;20043;-75
2021/08/23 06:10:42;;;;;;;1.00;0.70;;;;;;;13.84;84.13;101449.13;5063390;28;20028;-75
2021/08/23 06:13:08;;;;;;;0.93;0.70;;;;;;;13.88;84.99;101452.19;5066895;28;20028;-75
2021/08/23 06:15:33;;;;;;;0.93;0.60;;;;;;;13.92;85.02;101444.88;5078228;28;20043;-75
2021/08/23 06:17:59;;;;;;;1.02;0.90;;;;;;;13.94;84.69;101451.84;5083898;28;20036;-75
2021/08/23 06:20:25;;;;;;;0.60;0.60;;;;;;;13.97;84.39;101451.25;5101146;28;20039;-73
2021/08/23 06:22:51;;;;;;;0.80;0.70;;;;;;;14.04;84.17;101457.31;5077306;28;20052;-73
2021/08/23 06:25:17;;;;;;;1.92;0.73;;;;;;;14.11;84.35;101456.97;5048770;28;20057;-74
2021/08/23 06:27:42;;;;;;;1.05;0.70;;;;;;;14.15;84.10;101454.41;5054939;28;20031;-73
2021/08/23 06:30:08;;;;;;;0.80;0.70;;;;;;;14.21;83.82;101456.03;5093694;28;20265;-70
2021/08/23 06:32:34;;;;;;;1.17;0.82;;;;;;;14.23;83.84;101459.34;5075708;28;20036;-75
2021/08/23 06:35:02;;;;;;;1.38;0.98;;;;;;;14.26;84.27;101455.97;5110237;28;20031;-75
2021/08/23 06:37:28;;;;;;;1.35;0.90;;;;;;;14.27;84.81;101458.47;5092988;28;20107;-75
2021/08/23 06:39:53;;;;;;;1.48;0.90;;;;;;;14.30;84.96;101460.69;5086822;28;20077;-75
2021/08/23 06:42:19;;;;;;;0.88;0.85;;;;;;;14.36;85.59;101469.00;5090045;28;20031;-75
2021/08/23 06:44:44;;;;;;;1.27;1.10;;;;;;;14.38;88.70;101456.41;5063973;28;20028;-76
2021/08/23 06:47:10;;;;;;;1.30;0.90;;;;;;;14.42;85.51;101459.44;5082408;28;20028;-76
2021/08/23 06:49:35;;;;;;;1.25;1.15;;;;;;;14.46;87.17;101457.72;5063483;28;20043;-76
2021/08/23 06:52:01;;;;;;;1.75;1.15;;;;;;;14.50;88.34;101458.78;5067119;28;20033;-76
2021/08/23 06:54:26;;;;;;;1.30;1.20;;;;;;;14.53;89.16;101459.03;5076502;28;20020;-76
2021/08/23 06:56:53;;;;;;;4.25;2.00;;;;;;;14.56;91.50;101459.59;5075809;28;20089;-76
2021/08/23 06:59:19;;;;;;;1.20;1.10;;;;;;;14.58;89.47;101465.72;5074745;28;20123;-76
2021/08/23 07:01:45;;;;;;;1.30;1.13;;;;;;;14.63;89.05;101465.66;5076972;28;20039;-76
2021/08/23 07:04:10;;;;;;;2.47;0.98;;;;;;;14.65;87.81;101460.59;5058752;28;20028;-75
2021/08/23 07:06:36;;;;;;;1.45;1.00;;;;;;;14.73;87.53;101457.13;5050878;28;20039;-76
2021/08/23 07:09:02;;;;;;;1.48;1.20;;;;;;;14.75;87.52;101454.88;5093579;28;20031;-76
2021/08/23 07:11:27;;;;;;;1.10;0.90;;;;;;;14.80;88.00;101463.19;5049801;28;20028;-75
2021/08/23 07:13:53;;;;;;;1.13;1.00;;;;;;;14.87;86.55;101460.03;5073333;28;20028;-75
2021/08/23 07:16:18;;;;;;;1.10;0.93;;;;;;;14.92;86.48;101455.19;5080033;28;20732;-75
2021/08/23 07:18:44;;;;;;;1.38;0.80;;;;;;;15.00;85.87;101445.31;5080376;28;20038;-76
2021/08/23 07:21:10;;;;;;;1.10;0.90;;;;;;;15.07;86.58;101444.91;5092356;28;20039;-75
2021/08/23 07:23:35;;;;;;;1.48;1.20;;;;;;;15.16;87.67;101449.56;5061707;28;20016;-75
2021/08/23 07:26:01;;;;;;;1.30;1.20;;;;;;;15.22;87.96;101452.28;5080685;28;20050;-75
2021/08/23 07:28:26;;;;;;;1.42;1.23;;;;;;;15.28;86.99;101451.88;5048365;28;20391;-75
2021/08/23 07:30:52;;;;;;;3.45;1.83;;;;;;;15.36;88.14;101459.59;5090245;28;20507;-75
2021/08/23 07:33:17;;;;;;;2.42;1.58;;;;;;;15.42;88.54;101461.19;5083708;28;20035;-75
2021/08/23 07:35:43;;;;;;;2.28;1.90;;;;;;;15.50;88.92;101464.44;5066893;28;20024;-76
2021/08/23 07:38:08;;;;;;;2.13;1.20;;;;;;;15.58;86.46;101472.16;5074141;28;20032;-75
2021/08/23 07:40:34;;;;;;;2.35;0.80;;;;;;;15.66;85.09;101463.06;5070948;28;20031;-75
2021/08/23 07:43:00;;;;;;;2.30;1.02;;;;;;;15.76;84.59;101462.91;5078093;28;20077;-76
2021/08/23 07:45:25;;;;;;;1.30;1.10;;;;;;;15.86;85.45;101457.13;5066552;28;20111;-75
2021/08/23 07:47:51;;;;;;;1.52;1.02;;;;;;;15.96;85.29;101461.72;5064608;28;20063;-76
2021/08/23 07:50:17;;;;;;;1.77;1.20;;;;;;;16.07;84.99;101467.97;5091756;28;20115;-76
2021/08/23 07:52:42;;;;;;;3.35;1.70;;;;;;;16.17;85.56;101465.00;5065807;28;20054;-75
2021/08/23 07:55:08;;;;;;;4.60;3.50;;;;;;;16.25;90.79;101464.28;5070877;28;20404;-75
2021/08/23 07:57:43;;;;;;;6.28;3.78;;;;;;;16.36;91.75;101467.72;5048221;28;20023;-75
2021/08/23 08:00:09;;;;;;;4.75;2.97;;;;;;;16.43;89.28;101473.72;5065683;28;20035;-75
2021/08/23 08:02:35;;;;;;;5.95;3.38;;;;;;;16.51;89.76;101472.19;5103411;28;20024;-75
2021/08/23 08:05:00;;;;;;;5.68;4.00;;;;;;;16.64;90.75;101474.16;5047003;28;20380;-75
2021/08/23 08:07:26;;;;;;;5.30;3.60;;;;;;;16.77;89.85;101477.31;5064614;28;20040;-76
2021/08/23 08:09:51;;;;;;;7.45;3.65;;;;;;;16.91;89.54;101475.31;5098141;28;20027;-75
2021/08/23 08:12:17;;;;;;;6.75;3.42;;;;;;;17.05;88.65;101464.06;5070310;28;20488;-75
2021/08/23 08:14:42;;;;;;;5.03;3.10;;;;;;;17.22;87.20;101469.00;5080855;28;20028;-75
2021/08/23 08:17:08;;;;;;;4.13;2.13;;;;;;;17.37;84.89;101471.50;5096589;28;20044;-75
2021/08/23 08:19:33;;;;;;;5.10;3.38;;;;;;;17.50;85.73;101466.97;5091473;28;20032;-76
2021/08/23 08:22:04;;;;;;;5.60;3.33;;;;;;;17.62;85.32;101472.84;5087922;28;20097;-76
2021/08/23 08:24:30;;;;;;;7.53;3.47;;;;;;;17.72;85.47;101472.59;5086437;28;20496;-76
2021/08/23 08:26:55;;;;;;;7.88;3.85;;;;;;;17.83;84.99;101468.41;5084564;28;20027;-76
2021/08/23 08:29:21;;;;;;;7.30;4.15;;;;;;;17.95;84.26;101475.44;5069859;28;20023;-76
2021/08/23 08:31:46;;;;;;;5.22;3.47;;;;;;;18.04;83.47;101468.72;5074949;28;20031;-76
2021/08/23 08:34:12;;;;;;;5.70;3.13;;;;;;;18.16;82.85;101476.53;5061477;28;20020;-76
2021/08/23 08:36:37;;;;;;;7.10;3.85;;;;;;;18.21;83.72;101467.16;5107467;28;20035;-75
2021/08/23 08:39:03;;;;;;;7.15;4.45;;;;;;;18.23;83.80;101468.50;5105814;28;20028;-76
2021/08/23 08:41:30;;;;;;;6.68;3.67;;;;;;;18.32;83.70;101474.16;5083040;28;20031;-76
2021/08/23 08:43:56;;;;;;;6.93;4.00;;;;;;;18.38;84.46;101474.84;5099005;28;20035;-76
2021/08/23 08:46:22;;;;;;;7.38;3.78;;;;;;;18.50;83.95;101463.81;5097515;28;20031;-76
2021/08/23 08:48:47;;;;;;;9.63;4.57;;;;;;;18.60;83.99;101473.94;5080523;28;20024;-76
2021/08/23 08:51:13;;;;;;;6.45;4.45;;;;;;;18.68;83.99;101470.34;5084721;28;20063;-75
2021/08/23 08:53:39;;;;;;;5.45;3.92;;;;;;;18.86;83.45;101474.06;5095823;28;20035;-75
2021/08/23 08:56:04;;;;;;;5.75;3.35;;;;;;;19.01;82.39;101479.22;5083562;28;20057;-75
2021/08/23 08:58:30;;;;;;;6.50;3.25;;;;;;;19.18;82.71;101479.25;5110505;28;20030;-75
2021/08/23 09:00:55;;;;;;;3.97;2.80;;;;;;;19.38;80.31;101485.41;5096502;28;20028;-75
2021/08/23 09:03:28;;;;;;;6.30;3.13;;;;;;;19.56;79.83;101483.44;5097367;28;20028;-75
2021/08/23 09:06:04;;;;;;;6.25;3.00;;;;;;;19.70;79.07;101484.13;5092508;28;20034;-75
2021/08/23 09:08:30;;;;;;;6.50;2.90;;;;;;;19.87;77.41;101486.09;5085151;28;20035;-75
2021/08/23 09:11:09;;;;;;;4.57;2.40;;;;;;;20.01;76.07;101486.75;5105294;28;20031;-75
2021/08/23 09:13:35;;;;;;;4.70;2.20;;;;;;;20.17;74.71;101484.22;5085895;28;20107;-75
2021/08/23 09:16:00;;;;;;;4.85;3.10;;;;;;;20.28;75.96;101479.88;5088324;28;20043;-76
2021/08/23 09:18:29;;;;;;;7.45;3.58;;;;;;;20.34;76.92;101479.66;5079223;28;20683;-75
2021/08/23 09:21:05;;;;;;;6.30;3.90;;;;;;;20.41;77.42;101480.81;5097135;28;20057;-75
2021/08/23 09:23:38;;;;;;;5.18;3.40;;;;;;;20.55;76.47;101491.09;5101395;28;20106;-75
2021/08/23 09:26:05;;;;;;;6.57;3.10;;;;;;;20.67;75.18;101488.38;5101488;28;20052;-75
2021/08/23 09:28:30;;;;;;;5.22;2.50;;;;;;;20.83;73.56;101492.28;5105248;28;20036;-75
2021/08/23 09:30:57;;;;;;;3.90;2.50;;;;;;;20.95;73.01;101478.28;5105535;28;20040;-75
2021/08/23 09:33:23;;;;;;;5.20;2.85;;;;;;;21.08;73.49;101490.47;5094694;28;20692;-75
2021/08/23 09:35:53;;;;;;;6.85;3.13;;;;;;;21.19;73.03;101488.09;5086399;28;20024;-75
2021/08/23 09:38:19;;;;;;;5.45;2.50;;;;;;;21.34;72.47;101473.38;5067587;28;20024;-74
2021/08/23 09:40:45;;;;;;;4.25;2.40;;;;;;;21.51;71.26;101482.91;5065842;28;20028;-75
2021/08/23 09:43:13;;;;;;;3.53;1.92;;;;;;;21.66;70.98;101484.28;5066662;28;20512;-75
2021/08/23 09:45:49;;;;;;;4.53;3.15;;;;;;;21.76;72.76;101478.19;5055453;28;20032;-75
2021/08/23 09:48:15;;;;;;;5.40;3.05;;;;;;;21.95;72.58;101491.81;5045572;28;20484;-75
2021/08/23 09:50:45;;;;;;;7.53;3.33;;;;;;;22.12;71.10;101486.00;5068490;28;20036;-75
2021/08/23 09:53:12;;;;;;;5.30;3.25;;;;;;;22.26;70.48;101482.88;5099391;28;20044;-75
2021/08/23 09:55:45;;;;;;;5.63;3.45;;;;;;;22.37;70.95;101478.41;5067629;28;20062;-75
2021/08/23 09:58:11;;;;;;;;;;;;;;;22.46;70.53;101479.13;5098602;28;20464;-75
2021/08/23 10:00:37;;;;;;;4.47;3.17;;;;;;;22.47;70.83;101474.28;5078098;28;19912;-75
2021/08/23 10:03:06;;;;;;;6.65;3.05;;;;;;;22.57;71.05;101479.50;5048156;28;20079;-75
2021/08/23 10:05:31;;;;;;;5.57;3.30;;;;;;;22.64;70.49;101473.25;5060706;28;20702;-75
2021/08/23 10:07:57;;;;;;;4.38;3.30;;;;;;;22.69;69.43;101475.84;5091908;28;20073;-75
2021/08/23 10:10:22;;;;;;;5.95;3.40;;;;;;;22.72;69.04;101470.28;5060926;28;20032;-75
2021/08/23 10:12:48;;;;;;;5.75;2.80;;;;;;;22.77;68.96;101482.56;5086467;28;20027;-75
2021/08/23 10:15:13;;;;;;;7.28;3.53;;;;;;;22.76;68.86;101476.06;5087527;28;20036;-75
2021/08/23 10:17:39;;;;;;;8.18;3.85;;;;;;;22.76;68.82;101464.72;5089734;28;20043;-75
2021/08/23 10:20:06;;;;;;;7.05;3.70;;;;;;;22.71;70.06;101467.84;5066338;28;20020;-75
2021/08/23 10:22:32;;;;;;;4.93;2.65;;;;;;;22.84;69.67;101463.78;5086074;28;20066;-75
2021/08/23 10:24:58;;;;;;;5.40;2.72;;;;;;;22.94;69.28;101460.50;5049291;28;20516;-75
2021/08/23 10:27:24;;;;;;;5.03;2.70;;;;;;;23.05;68.78;101452.38;5061610;28;20043;-75
2021/08/23 10:29:49;;;;;;;5.85;2.85;;;;;;;23.14;68.80;101455.06;5062002;28;20027;-75
2021/08/23 10:32:15;;;;;;;5.80;2.83;;;;;;;23.20;67.97;101454.44;5081704;28;20031;-75
2021/08/23 10:34:41;;;;;;;4.72;3.25;;;;;;;23.32;67.91;101455.63;5082647;28;20051;-74
2021/08/23 10:37:23;;;;;;;4.38;2.78;;;;;;;23.46;68.43;101450.38;5090971;28;20035;-75
2021/08/23 10:40:01;;;;;;;5.20;2.47;;;;;;;23.57;67.05;101445.03;5092108;28;20088;-75
2021/08/23 10:42:35;;;;;;;5.28;2.78;;;;;;;23.77;65.79;101437.53;5046531;28;20107;-74
2021/08/23 10:45:08;;;;;;;4.68;2.75;;;;;;;23.81;64.53;101433.59;5099011;28;20441;-75
2021/08/23 10:47:33;;;;;;;5.22;3.40;;;;;;;23.77;66.78;101437.53;5080492;28;20031;-74
2021/08/23 10:50:00;;;;;;;6.88;3.60;;;;;;;23.90;66.57;101435.44;5060975;28;20032;-75
2021/08/23 10:52:30;;;;;;;5.00;3.03;;;;;;;24.00;66.04;101432.91;5089812;28;20055;-75
2021/08/23 10:54:55;;;;;;;5.32;2.90;;;;;;;24.07;65.28;101435.94;5081061;28;20088;-75
2021/08/23 10:57:22;;;;;;;7.97;3.45;;;;;;;24.15;64.47;101439.78;5077036;28;20028;-75
2021/08/23 10:59:52;;;;;;;6.10;3.30;;;;;;;24.08;65.24;101433.94;5065297;28;20618;-75
2021/08/23 11:02:32;;;;;;;5.07;3.10;;;;;;;24.03;65.27;101437.03;5048882;28;20067;-75
2021/08/23 11:05:04;;;;;;;4.13;2.70;;;;;;;24.11;64.77;101432.38;5061907;28;20026;-75
2021/08/23 11:07:31;;;;;;;4.40;2.97;;;;;;;24.13;64.66;101432.84;5089446;28;20046;-75
2021/08/23 11:10:13;;;;;;;4.80;3.33;;;;;;;24.16;64.48;101432.94;5072999;28;20398;-75
2021/08/23 11:12:40;;;;;;;5.35;3.08;;;;;;;24.16;64.93;101434.97;5064145;28;20034;-75
2021/08/23 11:15:13;;;;;;;6.18;3.53;;;;;;;24.20;64.24;101436.69;5075324;28;20024;-76
2021/08/23 11:17:44;;;;;;;5.65;3.88;;;;;;;24.19;63.74;101437.06;5063325;28;20103;-75
2021/08/23 11:20:10;;;;;;;7.60;3.85;;;;;;;24.23;63.75;101429.44;5066673;28;20059;-75
2021/08/23 11:22:35;;;;;;;5.25;3.03;;;;;;;24.28;63.42;101432.03;5089413;28;20031;-76